Time;durP1;ratioP1;P1;durP2;ratioP2;P2;SDS_P1;SDS_P2;PMS_P1;PMS_P2;Temp;Humidity;BMP_temperature;BMP_pressure;BME280_temperature;BME280_humidity;BME280_pressure;Samples;Min_cycle;Max_cycle;Signal;HPM_P1;HPM_P2
2023/11/11 00:01:55;;;;;;;8.50;1.50;;;9.10;99.90;;;;;;4976257;28;38459;-78
2023/11/11 00:04:25;;;;;;;7.40;1.07;;;9.10;99.90;;;;;;4971701;28;38306;-77
2023/11/11 00:06:51;;;;;;;9.60;1.30;;;9.20;99.90;;;;;;4967660;28;39701;-77
2023/11/11 00:09:18;;;;;;;9.70;1.30;;;9.30;99.90;;;;;;4965759;28;37399;-77
2023/11/11 00:11:45;;;;;;;7.00;0.90;;;9.40;99.90;;;;;;4966724;28;39257;-78
2023/11/11 00:14:12;;;;;;;9.80;1.27;;;9.50;99.90;;;;;;4980030;28;38370;-78
2023/11/11 00:16:38;;;;;;;6.07;0.93;;;9.50;99.90;;;;;;4970419;28;38678;-78
2023/11/11 00:19:06;;;;;;;10.03;1.37;;;9.40;99.90;;;;;;4970693;28;36904;-78
2023/11/11 00:21:37;;;;;;;5.73;0.80;;;9.40;99.90;;;;;;4960463;28;37494;-78
2023/11/11 00:24:09;;;;;;;8.73;1.10;;;9.40;99.90;;;;;;4965682;28;38461;-78
2023/11/11 00:26:37;;;;;;;5.47;1.48;;;9.40;99.90;;;;;;4964645;28;38153;-78
2023/11/11 00:29:03;;;;;;;7.47;1.10;;;9.50;99.90;;;;;;4968232;28;37352;-78
2023/11/11 00:31:31;;;;;;;10.50;1.20;;;9.50;99.90;;;;;;4969565;28;38567;-78
2023/11/11 00:33:58;;;;;;;6.03;1.10;;;9.50;99.90;;;;;;4964607;28;38849;-78
2023/11/11 00:36:25;;;;;;;12.97;1.30;;;9.50;99.90;;;;;;4969474;28;37839;-78
2023/11/11 00:38:51;;;;;;;11.27;1.23;;;9.60;99.90;;;;;;4963478;28;36961;-78
2023/11/11 00:41:17;;;;;;;6.93;1.40;;;9.60;99.90;;;;;;4971230;28;39364;-78
2023/11/11 00:43:44;;;;;;;11.47;2.10;;;9.60;99.90;;;;;;4941033;28;37532;-78
2023/11/11 00:46:10;;;;;;;7.23;1.60;;;9.60;99.90;;;;;;4958096;28;37922;-79
2023/11/11 00:48:37;;;;;;;7.20;1.17;;;9.60;99.90;;;;;;4968253;28;36178;-79
2023/11/11 00:51:05;;;;;;;10.03;1.33;;;9.60;99.90;;;;;;4971943;28;38300;-78
2023/11/11 00:53:31;;;;;;;14.33;1.43;;;9.50;99.90;;;;;;4967648;28;38924;-78
2023/11/11 00:55:57;;;;;;;10.10;1.33;;;9.40;99.90;;;;;;4967663;28;38082;-78
2023/11/11 00:58:23;;;;;;;8.17;1.57;;;9.20;99.90;;;;;;4965046;28;36045;-78
2023/11/11 01:00:50;;;;;;;12.57;1.33;;;9.00;99.90;;;;;;4969019;28;38657;-78
2023/11/11 01:03:16;;;;;;;6.60;1.07;;;9.00;99.90;;;;;;4966943;28;37147;-77
2023/11/11 01:05:42;;;;;;;14.87;1.67;;;9.00;99.90;;;;;;4949529;28;37394;-78
2023/11/11 01:08:09;;;;;;;7.70;1.33;;;8.90;99.90;;;;;;4943399;28;36317;-77
2023/11/11 01:10:37;;;;;;;6.30;1.10;;;8.90;99.90;;;;;;4959185;28;40441;-77
2023/11/11 01:13:04;;;;;;;8.20;1.50;;;8.90;99.90;;;;;;4957065;28;37268;-78
2023/11/11 01:15:30;;;;;;;11.73;1.53;;;8.80;99.90;;;;;;4961476;28;37957;-78
2023/11/11 01:17:56;;;;;;;8.87;1.70;;;8.70;99.90;;;;;;4969699;28;37454;-79
2023/11/11 01:20:23;;;;;;;11.30;2.13;;;8.80;99.90;;;;;;4957423;28;37793;-78
2023/11/11 01:22:50;;;;;;;9.97;1.33;;;8.80;99.90;;;;;;4951430;28;37358;-78
2023/11/11 01:25:17;;;;;;;8.23;1.27;;;8.90;99.90;;;;;;4955937;28;38053;-78
2023/11/11 01:27:43;;;;;;;12.13;1.70;;;8.90;99.90;;;;;;4971863;28;36327;-76
2023/11/11 01:30:10;;;;;;;7.80;1.60;;;9.00;99.90;;;;;;4976819;28;38668;-79
2023/11/11 01:32:36;;;;;;;13.17;1.93;;;9.00;99.90;;;;;;4970170;28;36610;-76
2023/11/11 01:35:02;;;;;;;8.33;1.43;;;9.00;99.90;;;;;;4966087;28;38400;-79
2023/11/11 01:37:29;;;;;;;10.70;1.40;;;8.90;99.90;;;;;;4951431;28;36270;-79
2023/11/11 01:39:57;;;;;;;13.63;2.10;;;8.80;99.90;;;;;;4976072;28;40400;-78
2023/11/11 01:42:23;;;;;;;8.57;1.77;;;8.70;99.90;;;;;;4944494;28;37262;-77
2023/11/11 01:44:53;;;;;;;3.67;0.77;;;8.50;99.90;;;;;;4969222;28;37631;-78
2023/11/11 01:47:26;;;;;;;4.67;0.90;;;8.30;99.90;;;;;;4969823;28;36308;-77
2023/11/11 01:49:52;;;;;;;7.32;1.83;;;8.10;99.90;;;;;;4956045;28;37749;-78
2023/11/11 01:52:22;;;;;;;3.40;0.80;;;8.00;99.90;;;;;;4969218;28;38405;-77
2023/11/11 01:54:48;;;;;;;4.67;1.07;;;8.00;99.90;;;;;;4967979;28;38500;-77
2023/11/11 01:57:14;;;;;;;3.60;1.00;;;8.00;99.90;;;;;;4958234;28;36483;-77
2023/11/11 01:59:40;;;;;;;6.63;1.70;;;8.00;99.90;;;;;;4974036;28;37696;-77
2023/11/11 02:02:07;;;;;;;2.80;0.80;;;7.90;99.90;;;;;;5297230;23;37485;-76
2023/11/11 02:04:33;;;;;;;4.80;1.07;;;7.90;99.90;;;;;;4923480;28;36873;-76
2023/11/11 02:07:00;;;;;;;5.67;1.17;;;7.90;99.90;;;;;;4951082;28;36979;-76
2023/11/11 02:09:27;;;;;;;7.77;0.90;;;7.70;99.90;;;;;;4953433;28;38655;-74
2023/11/11 02:11:56;;;;;;;4.10;1.03;;;7.60;99.90;;;;;;4934313;28;37593;-77
2023/11/11 02:14:23;;;;;;;9.40;1.40;;;7.50;99.90;;;;;;4933276;28;37869;-76
2023/11/11 02:16:50;;;;;;;7.33;1.37;;;7.40;99.90;;;;;;4943478;28;36442;-77
2023/11/11 02:19:16;;;;;;;6.33;1.30;;;7.40;99.90;;;;;;4935034;28;37701;-77
2023/11/11 02:21:42;;;;;;;5.50;1.73;;;7.40;99.90;;;;;;4934317;28;38530;-76
2023/11/11 02:24:10;;;;;;;5.73;1.77;;;7.40;99.90;;;;;;4936662;28;36927;-76
2023/11/11 02:26:36;;;;;;;8.60;2.10;;;7.50;99.90;;;;;;4932243;28;36580;-77
2023/11/11 02:29:03;;;;;;;15.47;2.10;;;7.40;99.90;;;;;;4942883;28;39367;-76
2023/11/11 02:31:29;;;;;;;7.43;1.90;;;7.50;99.90;;;;;;4937973;28;40375;-76
2023/11/11 02:33:55;;;;;;;4.27;2.07;;;7.50;99.90;;;;;;4952356;28;38152;-76
2023/11/11 02:36:22;;;;;;;5.47;1.90;;;7.50;99.90;;;;;;4940721;28;39366;-76
2023/11/11 02:38:48;;;;;;;5.83;1.80;;;7.60;99.90;;;;;;4945393;28;38309;-76
2023/11/11 02:41:14;;;;;;;7.17;2.00;;;7.50;99.90;;;;;;4951276;28;39333;-77
2023/11/11 02:43:40;;;;;;;16.10;3.10;;;7.60;99.90;;;;;;4937150;28;38620;-76
2023/11/11 02:46:07;;;;;;;8.00;1.73;;;7.60;99.90;;;;;;4950689;28;36872;-76
2023/11/11 02:48:33;;;;;;;4.87;2.00;;;7.60;99.90;;;;;;4940210;28;40674;-76
2023/11/11 02:51:02;;;;;;;7.37;2.00;;;7.60;99.90;;;;;;4938647;28;38305;-76
2023/11/11 02:53:28;;;;;;;5.57;2.20;;;7.60;99.90;;;;;;4951433;28;48693;-76
2023/11/11 02:55:54;;;;;;;6.20;1.90;;;7.70;99.90;;;;;;4933424;28;38845;-76
2023/11/11 02:58:20;;;;;;;11.07;1.93;;;7.70;99.90;;;;;;4955318;28;39722;-76
2023/11/11 03:00:46;;;;;;;6.27;1.67;;;7.70;99.90;;;;;;4928931;28;38962;-76
2023/11/11 03:03:13;;;;;;;5.87;1.90;;;7.70;99.90;;;;;;4929318;28;39253;-76
2023/11/11 03:05:39;;;;;;;7.37;2.03;;;7.80;99.90;;;;;;4933515;28;37857;-77
2023/11/11 03:08:05;;;;;;;8.43;1.80;;;7.80;99.90;;;;;;4946041;28;39623;-77
2023/11/11 03:10:31;;;;;;;7.17;1.83;;;7.80;99.90;;;;;;4946734;28;38718;-74
2023/11/11 03:12:58;;;;;;;5.43;2.10;;;7.80;99.90;;;;;;4932646;28;38460;-76
2023/11/11 03:15:24;;;;;;;2.90;1.70;;;7.70;99.90;;;;;;4928920;28;34162;-76
2023/11/11 03:17:50;;;;;;;11.43;2.20;;;7.70;99.90;;;;;;4938621;28;39581;-76
2023/11/11 03:20:16;;;;;;;9.97;3.13;;;7.80;99.90;;;;;;4949071;28;38321;-76
2023/11/11 03:22:43;;;;;;;8.77;2.07;;;7.80;99.90;;;;;;4935525;28;39771;-76
2023/11/11 03:25:11;;;;;;;8.93;2.60;;;7.70;99.90;;;;;;4933792;28;39108;-76
2023/11/11 03:27:37;;;;;;;11.70;1.90;;;7.80;99.90;;;;;;4949429;28;38585;-76
2023/11/11 03:30:03;;;;;;;9.73;2.63;;;7.80;99.90;;;;;;4950303;28;37971;-76
2023/11/11 03:32:30;;;;;;;9.23;2.70;;;7.80;99.90;;;;;;4944538;28;37778;-77
2023/11/11 03:34:56;;;;;;;10.77;2.57;;;7.80;99.90;;;;;;4937012;28;36143;-76
2023/11/11 03:37:22;;;;;;;12.63;3.07;;;7.70;99.90;;;;;;4939793;28;39049;-77
2023/11/11 03:39:48;;;;;;;12.10;2.73;;;7.80;99.90;;;;;;4950009;28;38803;-77
2023/11/11 03:42:14;;;;;;;11.67;2.43;;;7.80;99.90;;;;;;4958821;28;38090;-76
2023/11/11 03:44:41;;;;;;;18.90;3.53;;;7.70;99.90;;;;;;4939379;28;34645;-76
2023/11/11 03:47:07;;;;;;;10.90;3.23;;;7.70;99.90;;;;;;4937164;28;39723;-76
2023/11/11 03:49:33;;;;;;;11.13;2.80;;;7.70;99.90;;;;;;4938506;28;39905;-76
2023/11/11 03:51:59;;;;;;;7.70;2.30;;;7.80;99.90;;;;;;4958281;28;38240;-76
2023/11/11 03:54:26;;;;;;;5.37;2.37;;;7.80;99.90;;;;;;4946420;28;35902;-77
2023/11/11 03:56:52;;;;;;;12.83;3.27;;;7.80;99.90;;;;;;4951102;28;37779;-76
2023/11/11 03:59:18;;;;;;;9.47;2.57;;;7.80;99.90;;;;;;4941750;28;39769;-75
2023/11/11 04:01:45;;;;;;;9.83;2.90;;;7.80;99.90;;;;;;4944418;28;37153;-76
2023/11/11 04:04:11;;;;;;;5.80;2.50;;;7.70;99.90;;;;;;4937401;28;35915;-76
2023/11/11 04:06:39;;;;;;;7.90;2.77;;;7.80;99.90;;;;;;4944463;28;38615;-75
2023/11/11 04:09:05;;;;;;;7.67;2.50;;;7.80;99.90;;;;;;4946717;28;38464;-75
2023/11/11 04:11:33;;;;;;;17.77;4.97;;;7.80;99.90;;;;;;4941407;28;38830;-74
2023/11/11 04:14:01;;;;;;;15.77;2.70;;;7.90;99.90;;;;;;4941220;28;39315;-74
2023/11/11 04:16:29;;;;;;;9.43;2.40;;;7.90;99.90;;;;;;4949453;28;47726;-75
2023/11/11 04:18:59;;;;;;;10.27;2.60;;;8.00;99.90;;;;;;4967561;28;39486;-74
2023/11/11 04:21:25;;;;;;;7.53;1.90;;;8.10;99.90;;;;;;4940416;28;37159;-75
2023/11/11 04:23:51;;;;;;;6.47;2.00;;;8.10;99.90;;;;;;4944005;28;37254;-75
2023/11/11 04:26:18;;;;;;;9.30;2.43;;;8.10;99.90;;;;;;4953104;28;38838;-74
2023/11/11 04:28:44;;;;;;;8.50;2.37;;;8.10;99.90;;;;;;4958671;28;38281;-74
2023/11/11 04:31:17;;;;;;;6.40;1.90;;;8.10;99.90;;;;;;4937259;28;36764;-75
2023/11/11 04:33:43;;;;;;;;;;;8.20;99.90;;;;;;4937115;28;36677;-75
2023/11/11 04:36:09;;;;;;;8.83;1.80;;;8.20;99.90;;;;;;4956922;28;40065;-75
2023/11/11 04:38:37;;;;;;;11.20;2.10;;;8.20;99.90;;;;;;4933811;28;38578;-75
2023/11/11 04:41:04;;;;;;;8.87;1.63;;;8.20;99.90;;;;;;4950800;28;38189;-76
2023/11/11 04:43:34;;;;;;;7.37;2.10;;;8.20;99.90;;;;;;4947340;28;37732;-75
2023/11/11 04:46:02;;;;;;;5.60;2.07;;;8.20;99.90;;;;;;4937983;28;39580;-75
2023/11/11 04:48:28;;;;;;;5.23;1.67;;;8.30;99.90;;;;;;4943680;28;47751;-75
2023/11/11 04:50:55;;;;;;;8.13;1.70;;;8.30;99.90;;;;;;4949124;28;37007;-75
2023/11/11 04:53:21;;;;;;;6.73;2.13;;;8.30;99.90;;;;;;4941531;28;37464;-75
2023/11/11 04:55:48;;;;;;;4.83;1.90;;;8.20;99.90;;;;;;4961294;28;38640;-74
2023/11/11 04:58:16;;;;;;;8.53;2.50;;;8.20;99.90;;;;;;4938934;28;37653;-75
2023/11/11 05:00:43;;;;;;;9.17;2.07;;;8.10;99.90;;;;;;4951905;28;36376;-74
2023/11/11 05:03:09;;;;;;;8.60;2.00;;;8.10;99.90;;;;;;4938061;28;37105;-75
2023/11/11 05:05:35;;;;;;;5.83;1.90;;;8.00;99.90;;;;;;4952631;28;39884;-76
2023/11/11 05:08:02;;;;;;;8.33;2.10;;;8.00;99.90;;;;;;4944345;28;38816;-75
2023/11/11 05:10:30;;;;;;;8.50;2.40;;;8.00;99.90;;;;;;4954132;28;38079;-75
2023/11/11 05:12:56;;;;;;;11.10;2.17;;;8.00;99.90;;;;;;4953533;28;36920;-76
2023/11/11 05:15:24;;;;;;;6.20;2.50;;;8.00;99.90;;;;;;4949755;28;38836;-76
2023/11/11 05:17:51;;;;;;;9.70;2.43;;;8.10;99.90;;;;;;4945755;28;36699;-75
2023/11/11 05:20:17;;;;;;;6.27;2.20;;;8.10;99.90;;;;;;4931279;28;36944;-74
2023/11/11 05:22:44;;;;;;;7.40;2.03;;;8.10;99.90;;;;;;4936854;28;37052;-75
2023/11/11 05:25:10;;;;;;;9.47;2.50;;;8.10;99.90;;;;;;4938166;28;39635;-75
2023/11/11 05:27:37;;;;;;;8.27;2.70;;;8.10;99.90;;;;;;4949410;28;38643;-76
2023/11/11 05:30:08;;;;;;;11.33;2.50;;;8.10;99.90;;;;;;4951420;28;37839;-75
2023/11/11 05:32:35;;;;;;;7.63;2.50;;;8.10;99.90;;;;;;4943540;28;48852;-74
2023/11/11 05:35:03;;;;;;;6.87;2.27;;;8.10;99.90;;;;;;4930905;28;39598;-75
2023/11/11 05:37:30;;;;;;;6.23;2.20;;;8.10;99.90;;;;;;4952342;28;38340;-76
2023/11/11 05:39:56;;;;;;;7.83;1.83;;;8.10;99.90;;;;;;4932023;28;38675;-75
2023/11/11 05:42:22;;;;;;;7.40;2.40;;;8.00;99.90;;;;;;4945970;28;36856;-74
2023/11/11 05:44:49;;;;;;;5.60;2.30;;;8.00;99.90;;;;;;4953045;28;38470;-75
2023/11/11 05:47:15;;;;;;;12.70;2.90;;;7.90;99.90;;;;;;4954729;28;39457;-75
2023/11/11 05:49:44;;;;;;;8.43;2.63;;;7.90;99.90;;;;;;4928346;28;38587;-75
2023/11/11 05:52:10;;;;;;;8.07;2.30;;;8.00;99.90;;;;;;4949780;28;37283;-75
2023/11/11 05:54:37;;;;;;;5.97;2.13;;;8.10;99.90;;;;;;4934177;28;38048;-74
2023/11/11 05:57:03;;;;;;;7.60;1.80;;;8.10;99.90;;;;;;4951281;28;38544;-75
2023/11/11 05:59:29;;;;;;;6.23;1.97;;;8.10;99.90;;;;;;4928469;28;38728;-75
2023/11/11 06:01:55;;;;;;;10.80;2.30;;;8.10;99.90;;;;;;4930994;28;35853;-74
2023/11/11 06:04:22;;;;;;;9.80;1.93;;;8.10;99.90;;;;;;4933546;28;40488;-75
2023/11/11 06:06:50;;;;;;;7.73;2.13;;;8.00;99.90;;;;;;4949933;28;38141;-75
2023/11/11 06:09:19;;;;;;;5.70;1.83;;;8.00;99.90;;;;;;4933276;28;38754;-75
2023/11/11 06:11:47;;;;;;;9.37;1.90;;;8.00;99.90;;;;;;4945681;28;37944;-74
2023/11/11 06:14:16;;;;;;;9.17;2.60;;;8.00;99.90;;;;;;4927289;28;40557;-75
2023/11/11 06:16:48;;;;;;;11.83;2.67;;;7.90;99.90;;;;;;4950219;28;39238;-75
2023/11/11 06:19:16;;;;;;;6.80;2.58;;;7.80;99.90;;;;;;4930125;28;37084;-75
2023/11/11 06:21:42;;;;;;;7.73;2.00;;;7.80;99.90;;;;;;4931548;28;37226;-75
2023/11/11 06:24:10;;;;;;;8.80;2.30;;;7.80;99.90;;;;;;4950451;28;39029;-75
2023/11/11 06:26:37;;;;;;;11.63;2.20;;;7.80;99.90;;;;;;4953612;28;38493;-75
2023/11/11 06:29:04;;;;;;;9.20;1.70;;;7.90;99.90;;;;;;4935646;28;38742;-76
2023/11/11 06:31:32;;;;;;;6.87;1.73;;;7.90;99.90;;;;;;4938789;28;36036;-75
2023/11/11 06:34:00;;;;;;;8.23;1.90;;;7.90;99.90;;;;;;4928126;28;40800;-75
2023/11/11 06:36:26;;;;;;;8.90;1.97;;;7.90;99.90;;;;;;4934825;28;40217;-75
2023/11/11 06:38:52;;;;;;;8.93;2.07;;;7.90;99.90;;;;;;4933646;28;38073;-75
2023/11/11 06:41:20;;;;;;;10.97;2.70;;;7.80;99.90;;;;;;4953205;28;36866;-75
2023/11/11 06:43:46;;;;;;;6.83;1.93;;;7.80;99.90;;;;;;4952341;28;39649;-75
2023/11/11 06:46:13;;;;;;;11.03;2.13;;;7.80;99.90;;;;;;4952930;28;38666;-76
2023/11/11 06:48:39;;;;;;;8.03;1.93;;;7.90;99.90;;;;;;4944809;28;37901;-75
2023/11/11 06:51:05;;;;;;;8.80;2.77;;;7.90;99.90;;;;;;4947773;28;38063;-76
2023/11/11 06:53:31;;;;;;;14.83;2.33;;;7.80;99.90;;;;;;4938287;28;37600;-75
2023/11/11 06:55:57;;;;;;;9.20;2.17;;;7.80;99.90;;;;;;4955414;28;38434;-75
2023/11/11 06:58:23;;;;;;;12.33;1.70;;;7.80;99.90;;;;;;4948453;28;39047;-75
2023/11/11 07:00:50;;;;;;;7.53;1.93;;;7.80;99.90;;;;;;4930748;28;36333;-75
2023/11/11 07:03:17;;;;;;;8.83;1.80;;;7.80;99.90;;;;;;4924569;28;39563;-75
2023/11/11 07:05:43;;;;;;;8.40;2.00;;;7.80;99.90;;;;;;4932393;28;37279;-75
2023/11/11 07:08:10;;;;;;;6.53;1.70;;;7.80;99.90;;;;;;4938911;28;38635;-76
2023/11/11 07:10:37;;;;;;;6.03;1.97;;;7.80;99.90;;;;;;4937591;28;37747;-75
2023/11/11 07:13:04;;;;;;;9.60;2.07;;;7.80;99.90;;;;;;4935302;28;40074;-75
2023/11/11 07:15:31;;;;;;;10.67;3.40;;;7.80;99.90;;;;;;4951193;28;38070;-75
2023/11/11 07:17:57;;;;;;;6.07;1.83;;;7.80;99.90;;;;;;4948022;28;37596;-76
2023/11/11 07:20:23;;;;;;;7.73;2.00;;;7.80;99.90;;;;;;4932840;28;38702;-75
2023/11/11 07:22:49;;;;;;;4.60;1.40;;;7.90;99.90;;;;;;4930744;28;37564;-75
2023/11/11 07:25:16;;;;;;;9.83;1.67;;;7.90;99.90;;;;;;4950102;28;40204;-74
2023/11/11 07:27:43;;;;;;;9.60;2.03;;;7.90;99.90;;;;;;4941816;28;38762;-75
2023/11/11 07:30:12;;;;;;;11.33;1.80;;;8.00;99.90;;;;;;4925221;28;37919;-75
2023/11/11 07:32:40;;;;;;;6.17;1.63;;;8.00;99.90;;;;;;4930983;28;40558;-75
2023/11/11 07:35:10;;;;;;;7.10;2.10;;;8.10;99.90;;;;;;4928499;28;37690;-75
2023/11/11 07:37:38;;;;;;;11.97;2.20;;;8.10;99.90;;;;;;4949731;28;37922;-75
2023/11/11 07:40:05;;;;;;;6.77;1.70;;;8.20;99.90;;;;;;4947455;28;37144;-76
2023/11/11 07:42:32;;;;;;;4.10;1.80;;;8.20;99.90;;;;;;4928148;28;37614;-75
2023/11/11 07:45:03;;;;;;;7.00;1.90;;;8.20;99.90;;;;;;4931436;28;38236;-75
2023/11/11 07:47:31;;;;;;;5.97;1.70;;;8.20;99.90;;;;;;4931323;28;36922;-75
2023/11/11 07:49:58;;;;;;;11.87;1.73;;;8.20;99.90;;;;;;4927240;28;36032;-76
2023/11/11 07:52:25;;;;;;;7.80;2.70;;;8.20;99.90;;;;;;4930618;28;38175;-75
2023/11/11 07:54:52;;;;;;;9.47;2.50;;;8.30;99.90;;;;;;4932036;28;38285;-75
2023/11/11 07:57:19;;;;;;;8.47;2.23;;;8.30;99.90;;;;;;4941759;28;37479;-75
2023/11/11 07:59:46;;;;;;;3.23;1.57;;;8.40;99.90;;;;;;4927500;28;36237;-75
2023/11/11 08:02:12;;;;;;;10.40;1.80;;;8.40;99.90;;;;;;4930003;28;37813;-75
2023/11/11 08:04:38;;;;;;;4.83;1.70;;;8.50;99.90;;;;;;4925615;28;37320;-76
2023/11/11 08:07:06;;;;;;;6.47;1.97;;;8.60;99.90;;;;;;4933451;28;38101;-75
2023/11/11 08:09:32;;;;;;;8.93;1.97;;;8.60;99.90;;;;;;4927966;28;38828;-75
2023/11/11 08:11:59;;;;;;;8.70;2.00;;;8.60;99.90;;;;;;4932772;28;39232;-75
2023/11/11 08:14:25;;;;;;;10.13;1.90;;;8.60;99.90;;;;;;4933068;28;39314;-75
2023/11/11 08:16:51;;;;;;;10.07;2.20;;;8.60;99.90;;;;;;4931007;28;37366;-75
2023/11/11 08:19:18;;;;;;;6.63;2.17;;;8.70;99.90;;;;;;4930839;28;37941;-75
2023/11/11 08:21:44;;;;;;;13.00;2.30;;;8.70;99.90;;;;;;4931873;28;37997;-75
2023/11/11 08:24:12;;;;;;;10.30;2.10;;;8.70;99.90;;;;;;4938529;28;39205;-75
2023/11/11 08:26:38;;;;;;;6.90;1.60;;;8.80;99.90;;;;;;4934197;28;38196;-75
2023/11/11 08:29:04;;;;;;;7.33;1.67;;;8.80;99.90;;;;;;4951535;28;37231;-75
2023/11/11 08:31:30;;;;;;;7.27;2.00;;;8.80;99.90;;;;;;4931710;28;40106;-75
2023/11/11 08:33:57;;;;;;;7.23;1.90;;;8.90;99.90;;;;;;4948718;28;37853;-74
2023/11/11 08:36:24;;;;;;;6.07;1.47;;;8.90;99.90;;;;;;4952136;28;38074;-75
2023/11/11 08:38:50;;;;;;;6.77;1.20;;;8.90;99.90;;;;;;4944557;28;37357;-74
2023/11/11 08:41:17;;;;;;;9.73;1.37;;;9.00;99.90;;;;;;4944407;28;39805;-75
2023/11/11 08:43:44;;;;;;;5.60;1.23;;;9.00;99.90;;;;;;4952259;28;39193;-75
2023/11/11 08:46:10;;;;;;;5.47;1.07;;;9.10;99.90;;;;;;4961009;28;37676;-75
2023/11/11 08:48:40;;;;;;;6.27;1.60;;;9.10;99.90;;;;;;4937143;28;36191;-75
2023/11/11 08:51:13;;;;;;;6.40;1.40;;;9.20;99.90;;;;;;4949421;28;38596;-75
2023/11/11 08:53:39;;;;;;;6.23;1.60;;;9.30;99.90;;;;;;4937653;28;37735;-75
2023/11/11 08:56:06;;;;;;;4.80;0.93;;;9.30;99.90;;;;;;4935973;28;37754;-75
2023/11/11 08:58:32;;;;;;;7.93;1.10;;;9.30;99.90;;;;;;4935434;28;36094;-75
2023/11/11 09:00:59;;;;;;;4.50;1.20;;;9.30;99.90;;;;;;4931968;28;40518;-75
2023/11/11 09:03:27;;;;;;;3.10;0.80;;;9.40;99.90;;;;;;4953498;28;39078;-74
2023/11/11 09:05:54;;;;;;;3.90;1.03;;;9.50;99.90;;;;;;4945802;28;37696;-73
2023/11/11 09:08:20;;;;;;;5.73;1.00;;;9.50;99.90;;;;;;4944700;28;37173;-74
2023/11/11 09:10:47;;;;;;;6.27;1.77;;;9.60;99.90;;;;;;4931235;28;37664;-75
2023/11/11 09:13:13;;;;;;;5.63;1.50;;;9.60;99.90;;;;;;4938718;28;37510;-74
2023/11/11 09:15:40;;;;;;;8.03;1.10;;;9.60;99.90;;;;;;4952920;28;37609;-74
2023/11/11 09:18:06;;;;;;;6.70;0.83;;;9.70;99.90;;;;;;4928366;28;37434;-74
2023/11/11 09:20:32;;;;;;;6.57;1.17;;;9.90;99.90;;;;;;4954138;28;39648;-75
2023/11/11 09:22:59;;;;;;;7.00;0.97;;;10.00;99.90;;;;;;4932782;28;38911;-75
2023/11/11 09:25:27;;;;;;;5.50;1.10;;;10.10;99.90;;;;;;4937410;28;38215;-75
2023/11/11 09:27:57;;;;;;;4.17;1.20;;;10.30;99.90;;;;;;4949948;28;37180;-73
2023/11/11 09:30:23;;;;;;;5.73;1.00;;;10.40;99.90;;;;;;4951621;28;38478;-74
2023/11/11 09:32:53;;;;;;;5.57;0.70;;;10.60;99.90;;;;;;4938315;28;38364;-75
2023/11/11 09:35:20;;;;;;;8.43;1.10;;;10.60;99.90;;;;;;4951550;28;37819;-75
2023/11/11 09:37:48;;;;;;;4.40;0.90;;;10.60;98.50;;;;;;4942876;28;37631;-75
2023/11/11 09:40:14;;;;;;;3.47;1.07;;;10.50;92.50;;;;;;4939936;28;38173;-76
2023/11/11 09:42:40;;;;;;;4.50;0.73;;;10.50;92.50;;;;;;4935511;28;36354;-74
2023/11/11 09:45:08;;;;;;;2.40;1.00;;;10.60;93.70;;;;;;4938028;28;37104;-75
2023/11/11 09:47:40;;;;;;;3.23;0.70;;;10.60;95.30;;;;;;4949827;28;37315;-74
2023/11/11 09:50:06;;;;;;;3.83;0.73;;;10.70;99.90;;;;;;4937904;28;38993;-74
2023/11/11 09:52:35;;;;;;;3.53;0.50;;;10.80;99.40;;;;;;4949039;28;39180;-74
2023/11/11 09:55:02;;;;;;;4.17;0.73;;;10.90;99.90;;;;;;4938237;28;37066;-75
2023/11/11 09:57:31;;;;;;;2.23;0.50;;;10.80;82.40;;;;;;4950153;28;36974;-74
2023/11/11 09:59:57;;;;;;;3.33;0.70;;;10.90;84.40;;;;;;4938887;28;37384;-74
2023/11/11 10:02:25;;;;;;;4.87;0.70;;;10.80;68.90;;;;;;4931581;28;37644;-74
2023/11/11 10:04:53;;;;;;;5.37;0.97;;;10.70;71.40;;;;;;4950981;28;39023;-74
2023/11/11 10:07:21;;;;;;;1.97;0.70;;;10.70;63.00;;;;;;4939587;28;36610;-74
2023/11/11 10:09:49;;;;;;;4.37;0.80;;;10.70;64.00;;;;;;4951284;28;39173;-74
2023/11/11 10:12:15;;;;;;;1.77;0.63;;;10.70;81.60;;;;;;4932878;28;37851;-74
2023/11/11 10:14:41;;;;;;;2.20;0.70;;;10.70;58.10;;;;;;4929642;28;37505;-74
2023/11/11 10:17:10;;;;;;;4.80;0.50;;;10.70;66.80;;;;;;4928662;28;35992;-75
2023/11/11 10:19:43;;;;;;;3.80;0.90;;;10.80;70.10;;;;;;4941593;28;38951;-74
2023/11/11 10:22:11;;;;;;;3.07;1.13;;;10.80;47.40;;;;;;4944091;28;38174;-74
2023/11/11 10:24:37;;;;;;;2.50;0.70;;;10.90;54.70;;;;;;4946313;28;38863;-74
2023/11/11 10:27:07;;;;;;;4.17;0.80;;;10.80;61.10;;;;;;4949525;28;37455;-75
2023/11/11 10:29:35;;;;;;;5.20;0.73;;;10.80;73.70;;;;;;4934524;28;37974;-74
2023/11/11 10:32:11;;;;;;;2.17;0.60;;;10.80;67.70;;;;;;4932626;28;38161;-75
2023/11/11 10:34:38;;;;;;;6.77;1.17;;;10.80;78.40;;;;;;4945466;28;39717;-74
2023/11/11 10:37:05;;;;;;;2.97;0.60;;;10.90;65.90;;;;;;4953631;28;37219;-75
2023/11/11 10:39:35;;;;;;;4.23;0.90;;;10.90;69.50;;;;;;4933810;28;37678;-74
2023/11/11 10:42:02;;;;;;;5.57;0.97;;;10.90;67.30;;;;;;4929383;28;39301;-75
2023/11/11 10:44:30;;;;;;;3.83;0.83;;;10.90;66.40;;;;;;4934794;28;38404;-74
2023/11/11 10:46:58;;;;;;;5.97;1.00;;;10.90;67.50;;;;;;4934385;28;37917;-74
2023/11/11 10:49:28;;;;;;;4.40;0.97;;;10.90;78.40;;;;;;4921223;28;39726;-74
2023/11/11 10:51:59;;;;;;;3.07;0.60;;;10.90;70.80;;;;;;4932384;28;39844;-74
2023/11/11 10:54:26;;;;;;;2.30;0.70;;;10.90;51.20;;;;;;4946430;28;36177;-74
2023/11/11 10:56:56;;;;;;;2.67;0.93;;;10.90;58.90;;;;;;4949965;28;37055;-74
2023/11/11 10:59:24;;;;;;;4.17;0.83;;;10.90;69.50;;;;;;4931888;28;39763;-74
2023/11/11 11:01:51;;;;;;;3.47;0.60;;;11.00;62.80;;;;;;4927717;28;37283;-74
2023/11/11 11:04:18;;;;;;;1.77;0.70;;;11.00;70.40;;;;;;4941771;28;37856;-74
2023/11/11 11:06:48;;;;;;;2.50;1.07;;;11.10;71.10;;;;;;4925465;28;37679;-74
2023/11/11 11:09:42;;;;;;;5.23;1.13;;;11.20;74.10;;;;;;4941831;28;39910;-74
2023/11/11 11:12:17;;;;;;;5.63;1.10;;;11.50;56.00;;;;;;4935234;28;38557;-74
2023/11/11 11:14:46;;;;;;;4.43;1.10;;;11.70;61.50;;;;;;4946036;28;36930;-74
2023/11/11 11:17:15;;;;;;;6.70;0.98;;;11.70;41.50;;;;;;4922022;28;38673;-74
2023/11/11 11:20:00;;;;;;;2.40;0.95;;;11.60;37.10;;;;;;4935388;28;39958;-76
2023/11/11 11:22:39;;;;;;;4.97;0.93;;;11.70;53.00;;;;;;4925045;28;39871;-76
2023/11/11 11:25:33;;;;;;;4.20;0.70;;;11.70;52.50;;;;;;4940627;28;38034;-76
2023/11/11 11:28:12;;;;;;;1.90;0.70;;;11.60;52.80;;;;;;4943316;28;37503;-75
2023/11/11 11:30:45;;;;;;;5.15;0.98;;;11.50;19.80;;;;;;4932296;28;47706;-75
2023/11/11 11:33:15;;;;;;;6.82;0.95;;;11.70;49.20;;;;;;4923054;28;38951;-76
2023/11/11 11:36:05;;;;;;;4.55;0.73;;;11.70;43.20;;;;;;4942437;28;40317;-75
2023/11/11 11:38:36;;;;;;;2.78;0.80;;;11.70;30.60;;;;;;4930684;28;47096;-75
2023/11/11 11:41:12;;;;;;;1.27;0.60;;;11.70;35.10;;;;;;4948796;28;37650;-76
2023/11/11 11:43:40;;;;;;;3.63;0.90;;;11.70;36.40;;;;;;4929967;28;37221;-75
2023/11/11 11:46:07;;;;;;;1.42;0.47;;;11.80;33.60;;;;;;4938745;28;39103;-75
2023/11/11 11:48:37;;;;;;;1.85;0.80;;;12.00;34.10;;;;;;4940236;28;36326;-75
2023/11/11 11:51:10;;;;;;;4.70;0.82;;;12.00;32.20;;;;;;4947679;28;38720;-76
2023/11/11 11:53:38;;;;;;;3.53;0.88;;;12.10;41.50;;;;;;4930691;28;37473;-76
2023/11/11 11:56:10;;;;;;;4.72;0.82;;;12.00;48.10;;;;;;4942409;28;37961;-76
2023/11/11 11:58:51;;;;;;;3.40;0.85;;;12.10;52.60;;;;;;4932394;28;36088;-75
2023/11/11 12:01:27;;;;;;;3.25;0.80;;;12.20;55.40;;;;;;4935084;28;38920;-76
2023/11/11 12:03:55;;;;;;;6.40;0.90;;;12.40;60.60;;;;;;4929903;28;38815;-75
2023/11/11 12:06:23;;;;;;;3.65;0.98;;;12.50;26.00;;;;;;4920397;28;37406;-76
2023/11/11 12:08:50;;;;;;;5.45;0.60;;;12.50;44.20;;;;;;4945333;28;37260;-75
2023/11/11 12:11:26;;;;;;;2.97;0.80;;;12.60;27.60;;;;;;4938141;28;38041;-77
2023/11/11 12:13:56;;;;;;;4.25;1.38;;;12.50;25.70;;;;;;4945505;28;37475;-75
2023/11/11 12:16:42;;;;;;;5.72;1.13;;;12.40;24.90;;;;;;4934753;28;39851;-76
2023/11/11 12:19:21;;;;;;;3.83;0.80;;;12.40;32.00;;;;;;4941809;28;38018;-77
2023/11/11 12:21:50;;;;;;;2.67;0.80;;;12.50;29.60;;;;;;4946567;28;38709;-75
2023/11/11 12:24:22;;;;;;;3.45;0.88;;;12.40;39.70;;;;;;4940812;28;38207;-76
2023/11/11 12:26:48;;;;;;;4.22;0.85;;;12.60;25.00;;;;;;4950033;28;37981;-75
2023/11/11 12:29:15;;;;;;;3.17;0.68;;;12.70;13.00;;;;;;4932645;28;39101;-76
2023/11/11 12:31:47;;;;;;;3.95;0.90;;;12.70;8.90;;;;;;4928825;28;39626;-76
2023/11/11 12:34:15;;;;;;;4.95;1.15;;;12.60;19.60;;;;;;4923883;28;37151;-75
2023/11/11 12:36:42;;;;;;;4.32;0.77;;;12.60;27.90;;;;;;4923750;28;37186;-75
2023/11/11 12:39:08;;;;;;;1.95;0.70;;;12.60;39.30;;;;;;4947817;28;35718;-76
2023/11/11 12:41:38;;;;;;;2.35;0.60;;;12.70;37.40;;;;;;4926542;28;39393;-76
2023/11/11 12:44:07;;;;;;;3.55;1.10;;;12.80;34.60;;;;;;4924123;28;38727;-77
2023/11/11 12:46:43;;;;;;;2.33;0.70;;;12.70;37.10;;;;;;4948613;28;38713;-77
2023/11/11 12:49:14;;;;;;;2.33;0.80;;;12.60;22.30;;;;;;4921103;28;36527;-77
2023/11/11 12:51:43;;;;;;;4.47;1.45;;;12.40;16.70;;;;;;4921955;28;37649;-77
2023/11/11 12:54:12;;;;;;;4.53;1.40;;;12.30;20.60;;;;;;4935017;28;37666;-78
2023/11/11 12:56:49;;;;;;;2.92;0.70;;;12.40;30.70;;;;;;4919019;28;35793;-77